createdAt,value
2018-12-30T00:00:05.139Z,3.18
2018-12-30T00:02:36.948Z,3.21
2018-12-30T00:05:08.394Z,3.14
2018-12-30T00:07:40.021Z,3.13
2018-12-30T00:10:11.551Z,3.14
2018-12-30T00:12:42.780Z,3.12
2018-12-30T00:15:14.065Z,3.10
2018-12-30T00:17:45.299Z,3.09
2018-12-30T00:20:16.894Z,3.11
2018-12-30T00:22:48.342Z,3.13
2018-12-30T00:25:20.359Z,3.08
2018-12-30T00:27:51.789Z,3.07
2018-12-30T00:30:23.031Z,3.09
2018-12-30T00:32:54.067Z,3.11
2018-12-30T00:35:25.199Z,3.06
2018-12-30T00:37:57.715Z,3.08
2018-12-30T00:40:30.433Z,3.08
2018-12-30T00:43:05.863Z,3.08
2018-12-30T00:45:37.259Z,3.09
2018-12-30T00:48:08.527Z,3.14
2018-12-30T00:50:39.674Z,3.14
2018-12-30T00:53:10.726Z,3.19
2018-12-30T00:55:42.306Z,3.19
2018-12-30T00:58:13.755Z,3.16
2018-12-30T01:00:44.842Z,3.13
2018-12-30T01:03:17.128Z,3.15
2018-12-30T01:05:48.324Z,3.25
2018-12-30T01:08:19.521Z,3.21
2018-12-30T01:10:51.709Z,3.20
2018-12-30T01:13:23.128Z,3.23
2018-12-30T01:15:55.529Z,3.26
2018-12-30T01:18:28.159Z,3.19
2018-12-30T01:20:59.255Z,3.26
2018-12-30T01:23:30.760Z,3.28
2018-12-30T01:26:01.952Z,3.21
2018-12-30T01:28:33.102Z,3.23
2018-12-30T01:31:04.100Z,3.22
2018-12-30T01:33:35.475Z,3.20
2018-12-30T01:36:07.053Z,3.16
2018-12-30T01:38:38.394Z,3.15
2018-12-30T01:41:10.878Z,3.11
2018-12-30T01:43:42.212Z,3.17
2018-12-30T01:46:13.200Z,3.14
2018-12-30T01:48:45.505Z,3.18
2018-12-30T01:51:16.613Z,3.15
2018-12-30T01:53:47.885Z,3.15
2018-12-30T01:56:19.484Z,3.16
2018-12-30T01:58:51.246Z,3.16
2018-12-30T02:01:22.496Z,3.17
2018-12-30T02:03:53.666Z,3.21
2018-12-30T02:06:26.589Z,3.22
2018-12-30T02:08:57.784Z,3.17
2018-12-30T02:11:29.015Z,3.17
2018-12-30T02:14:00.225Z,3.17
2018-12-30T02:16:31.221Z,3.18
2018-12-30T02:19:02.367Z,3.21
2018-12-30T02:21:40.933Z,3.21
2018-12-30T02:24:07.685Z,3.23
2018-12-30T02:26:38.841Z,3.20
2018-12-30T02:29:09.979Z,3.19
2018-12-30T02:31:41.208Z,3.15
2018-12-30T02:34:12.235Z,3.12
2018-12-30T02:36:43.388Z,3.13
2018-12-30T02:39:15.064Z,3.11
2018-12-30T02:41:46.938Z,3.10
2018-12-30T02:44:18.424Z,3.08
2018-12-30T02:46:49.481Z,3.07
2018-12-30T02:49:20.890Z,3.08
2018-12-30T02:51:52.310Z,3.07
2018-12-30T02:54:24.007Z,3.04
2018-12-30T02:56:55.071Z,3.06
2018-12-30T02:59:27.753Z,3.03
2018-12-30T03:01:59.856Z,3.04
2018-12-30T03:04:31.318Z,3.07
2018-12-30T03:07:02.961Z,3.06
2018-12-30T03:09:34.151Z,3.06
2018-12-30T03:12:06.351Z,3.08
2018-12-30T03:14:37.781Z,3.06
2018-12-30T03:17:08.906Z,3.05
2018-12-30T03:19:40.724Z,3.03
2018-12-30T03:22:12.369Z,3.03
2018-12-30T03:24:43.424Z,3.06
2018-12-30T03:27:14.804Z,3.05
2018-12-30T03:29:46.049Z,3.08
2018-12-30T03:32:17.193Z,3.03
2018-12-30T03:34:48.405Z,3.07
2018-12-30T03:37:19.493Z,3.05
2018-12-30T03:39:50.749Z,3.07
2018-12-30T03:42:21.957Z,3.06
2018-12-30T03:44:53.206Z,3.06
2018-12-30T03:47:24.346Z,3.07
2018-12-30T03:49:56.029Z,3.01
2018-12-30T03:52:28.681Z,3.07
2018-12-30T03:54:59.857Z,3.07
2018-12-30T03:57:31.458Z,3.05
2018-12-30T04:00:02.860Z,3.03
2018-12-30T04:02:34.208Z,3.05
2018-12-30T04:05:06.183Z,3.10
2018-12-30T04:07:37.411Z,3.14
2018-12-30T04:10:08.904Z,3.09
2018-12-30T04:12:40.639Z,3.12
2018-12-30T04:15:12.199Z,3.19
2018-12-30T04:17:43.335Z,3.20
2018-12-30T04:20:14.371Z,3.21
2018-12-30T04:22:45.568Z,3.27
2018-12-30T04:25:16.917Z,3.23
2018-12-30T04:27:47.910Z,3.17
2018-12-30T04:30:20.674Z,3.25
2018-12-30T04:32:54.034Z,3.22
2018-12-30T04:35:25.386Z,3.20
2018-12-30T04:37:56.493Z,3.17
2018-12-30T04:40:27.715Z,3.25
2018-12-30T04:42:59.059Z,3.26
2018-12-30T04:45:30.365Z,3.25
2018-12-30T04:48:01.553Z,3.25
2018-12-30T04:50:32.738Z,3.27
2018-12-30T04:53:03.972Z,3.29
2018-12-30T04:55:35.466Z,3.22
2018-12-30T04:58:07.671Z,3.22
2018-12-30T05:00:38.789Z,3.24
2018-12-30T05:03:09.955Z,3.24
2018-12-30T05:05:43.782Z,3.22
2018-12-30T05:08:16.530Z,3.21
2018-12-30T05:10:48.038Z,3.22
2018-12-30T05:13:19.411Z,3.25
2018-12-30T05:15:51.934Z,3.17
2018-12-30T05:18:23.016Z,3.19
2018-12-30T05:20:54.164Z,3.21
2018-12-30T05:23:25.545Z,3.25
2018-12-30T05:25:56.579Z,3.32
2018-12-30T05:28:27.573Z,3.27
2018-12-30T05:30:59.075Z,3.32
2018-12-30T05:33:31.936Z,3.32
2018-12-30T05:36:03.114Z,3.27
2018-12-30T05:38:35.847Z,3.37
2018-12-30T05:41:07.368Z,3.33
2018-12-30T05:43:38.745Z,3.26
2018-12-30T05:46:10.059Z,3.29
2018-12-30T05:48:41.172Z,3.34
2018-12-30T05:51:13.300Z,3.26
2018-12-30T05:53:44.403Z,3.29
2018-12-30T05:56:15.558Z,3.32
2018-12-30T05:58:46.835Z,3.34
2018-12-30T06:01:17.999Z,3.27
2018-12-30T06:03:49.031Z,3.31
2018-12-30T06:06:20.446Z,3.31
2018-12-30T06:08:51.628Z,3.31
2018-12-30T06:11:22.853Z,3.25
2018-12-30T06:13:53.863Z,3.26
2018-12-30T06:16:25.116Z,3.28
2018-12-30T06:18:56.634Z,3.20
2018-12-30T06:21:27.915Z,3.19
2018-12-30T06:23:59.077Z,3.21
2018-12-30T06:26:30.146Z,3.22
2018-12-30T06:29:01.418Z,3.24
2018-12-30T06:31:32.534Z,3.18
2018-12-30T06:34:03.726Z,3.14
2018-12-30T06:36:34.904Z,3.11
2018-12-30T06:39:08.216Z,3.12
2018-12-30T06:41:39.444Z,3.06
2018-12-30T06:44:10.884Z,3.06
2018-12-30T06:46:41.996Z,3.12
2018-12-30T06:49:13.136Z,3.06
2018-12-30T06:51:44.755Z,2.99
2018-12-30T06:54:16.243Z,2.98
2018-12-30T06:56:47.515Z,2.96
2018-12-30T06:59:18.502Z,2.92
2018-12-30T07:01:49.926Z,2.91
2018-12-30T07:04:21.288Z,2.95
2018-12-30T07:06:53.518Z,2.94
2018-12-30T07:09:24.824Z,2.97
2018-12-30T07:11:56.327Z,3.03
2018-12-30T07:14:27.551Z,3.08
2018-12-30T07:16:59.061Z,3.09
2018-12-30T07:19:30.271Z,3.15
2018-12-30T07:22:01.732Z,3.14
2018-12-30T07:24:32.889Z,3.17
2018-12-30T07:27:05.709Z,3.19
2018-12-30T07:29:36.710Z,3.21
2018-12-30T07:32:10.002Z,3.24
2018-12-30T07:34:41.955Z,3.24
2018-12-30T07:37:13.755Z,3.26
2018-12-30T07:39:45.009Z,3.22
2018-12-30T07:42:16.486Z,3.24
2018-12-30T07:44:47.670Z,3.26
2018-12-30T07:47:19.708Z,3.31
2018-12-30T07:49:50.870Z,3.31
2018-12-30T07:52:22.273Z,3.29
2018-12-30T07:54:53.514Z,3.28
2018-12-30T07:57:24.940Z,3.33
2018-12-30T07:59:57.105Z,3.34
2018-12-30T08:02:28.495Z,3.34
2018-12-30T08:04:59.917Z,3.42
2018-12-30T08:07:32.220Z,3.45
2018-12-30T08:10:03.427Z,3.51
2018-12-30T08:12:34.645Z,3.54
2018-12-30T08:15:06.486Z,3.56
2018-12-30T08:17:37.669Z,3.55
2018-12-30T08:20:08.902Z,3.57
2018-12-30T08:22:40.213Z,3.62
2018-12-30T08:25:11.389Z,3.76
2018-12-30T08:27:42.624Z,3.83
2018-12-30T08:30:13.938Z,3.85
2018-12-30T08:32:45.277Z,3.95
2018-12-30T08:35:16.260Z,3.98
2018-12-30T08:37:47.574Z,4.05
2018-12-30T08:40:18.855Z,4.10
2018-12-30T08:42:49.885Z,4.05
2018-12-30T08:45:22.131Z,4.08
2018-12-30T08:47:53.387Z,4.12
2018-12-30T08:50:24.579Z,4.07
2018-12-30T08:52:55.596Z,4.16
2018-12-30T08:55:26.740Z,4.11
2018-12-30T08:57:58.593Z,4.09
2018-12-30T09:00:29.868Z,4.18
2018-12-30T09:03:01.086Z,4.22
2018-12-30T09:05:32.149Z,3.96
2018-12-30T09:08:03.343Z,3.89
2018-12-30T09:10:34.527Z,3.89
2018-12-30T09:13:05.880Z,3.96
2018-12-30T09:15:37.036Z,3.90
2018-12-30T09:18:08.460Z,4.00
2018-12-30T09:20:39.798Z,4.11
2018-12-30T09:23:10.902Z,3.87
2018-12-30T09:25:42.801Z,3.83
2018-12-30T09:28:14.233Z,3.73
2018-12-30T09:30:45.911Z,3.72
2018-12-30T09:33:19.601Z,3.68
2018-12-30T09:35:50.771Z,3.64
2018-12-30T09:38:22.096Z,3.67
2018-12-30T09:40:53.174Z,3.75
2018-12-30T09:43:24.278Z,3.79
2018-12-30T09:45:55.250Z,3.84
2018-12-30T09:48:33.603Z,3.77
2018-12-30T09:50:59.445Z,3.88
2018-12-30T09:53:30.663Z,3.92
2018-12-30T09:56:02.105Z,3.94
2018-12-30T09:58:33.450Z,3.94
2018-12-30T10:01:04.764Z,3.90
2018-12-30T10:03:35.838Z,3.87
2018-12-30T10:06:08.226Z,3.92
2018-12-30T10:08:39.574Z,3.96
2018-12-30T10:11:10.761Z,3.98
2018-12-30T10:13:42.939Z,3.88
2018-12-30T10:16:14.514Z,3.76
2018-12-30T10:18:45.643Z,3.80
2018-12-30T10:21:17.129Z,3.80
2018-12-30T10:23:52.915Z,3.72
2018-12-30T10:26:21.276Z,3.81
2018-12-30T10:28:52.495Z,3.80
2018-12-30T10:31:23.795Z,3.80
2018-12-30T10:33:54.891Z,3.75
2018-12-30T10:36:26.055Z,3.76
2018-12-30T10:38:57.188Z,3.75
2018-12-30T10:41:28.250Z,3.67
2018-12-30T10:43:59.466Z,3.73
2018-12-30T10:46:30.859Z,3.72
2018-12-30T10:49:02.062Z,3.66
2018-12-30T10:51:34.812Z,3.66
2018-12-30T10:54:06.774Z,3.70
2018-12-30T10:56:38.139Z,3.57
2018-12-30T10:59:09.355Z,3.48
2018-12-30T11:01:40.429Z,3.48
2018-12-30T11:04:11.776Z,3.59
2018-12-30T11:06:43.012Z,3.54
2018-12-30T11:09:14.426Z,3.58
2018-12-30T11:11:45.759Z,3.61
2018-12-30T11:14:17.461Z,3.58
2018-12-30T11:16:50.382Z,3.45
2018-12-30T11:19:21.531Z,3.47
2018-12-30T11:21:52.755Z,3.47
2018-12-30T11:24:24.250Z,3.49
2018-12-30T11:26:55.314Z,3.57
2018-12-30T11:29:26.443Z,3.57
2018-12-30T11:31:59.299Z,3.66
2018-12-30T11:34:30.333Z,3.61
2018-12-30T11:37:01.377Z,3.64
2018-12-30T11:39:33.152Z,3.67
2018-12-30T11:42:04.246Z,3.79
2018-12-30T11:44:35.544Z,3.78
2018-12-30T11:47:06.633Z,3.82
2018-12-30T11:49:37.674Z,3.88
2018-12-30T11:52:08.759Z,3.96
2018-12-30T11:54:39.855Z,4.01
2018-12-30T11:57:11.141Z,4.09
2018-12-30T11:59:42.290Z,4.06
2018-12-30T12:02:13.508Z,3.93
2018-12-30T12:04:44.860Z,4.02
2018-12-30T12:07:17.881Z,3.97
2018-12-30T12:09:49.055Z,3.92
2018-12-30T12:12:20.403Z,3.85
2018-12-30T12:14:51.837Z,3.87
2018-12-30T12:17:23.059Z,3.84
2018-12-30T12:19:54.206Z,3.91
2018-12-30T12:22:25.294Z,3.95
2018-12-30T12:24:57.767Z,4.03
2018-12-30T12:27:29.214Z,4.05
2018-12-30T12:30:00.645Z,3.81
2018-12-30T12:32:31.731Z,3.90
2018-12-30T12:35:03.502Z,3.95
2018-12-30T12:37:34.700Z,3.90
2018-12-30T12:40:05.970Z,3.84
2018-12-30T12:42:37.036Z,3.86
2018-12-30T12:45:08.254Z,3.89
2018-12-30T12:47:39.225Z,3.87
2018-12-30T12:50:11.405Z,3.91
2018-12-30T12:52:42.465Z,3.92
2018-12-30T12:55:13.883Z,3.87
2018-12-30T12:57:45.223Z,3.88
2018-12-30T13:00:16.419Z,3.87
2018-12-30T13:02:48.972Z,3.75
2018-12-30T13:05:20.939Z,3.77
2018-12-30T13:07:52.145Z,3.79
2018-12-30T13:10:23.697Z,3.81
2018-12-30T13:12:54.821Z,3.74
2018-12-30T13:15:26.126Z,3.79
2018-12-30T13:17:57.772Z,3.74
2018-12-30T13:20:29.602Z,3.69
2018-12-30T13:23:00.560Z,3.72
2018-12-30T13:25:33.085Z,3.75
2018-12-30T13:28:04.186Z,3.85
2018-12-30T13:30:35.215Z,3.90
2018-12-30T13:33:06.255Z,3.89
2018-12-30T13:35:43.402Z,3.87
2018-12-30T13:38:11.546Z,3.89
2018-12-30T13:40:42.857Z,3.86
2018-12-30T13:43:13.898Z,3.89
2018-12-30T13:45:45.081Z,4.00
2018-12-30T13:48:16.075Z,3.92
2018-12-30T13:50:47.243Z,3.94
2018-12-30T13:53:18.699Z,3.86
2018-12-30T13:55:50.453Z,3.84
2018-12-30T13:58:21.707Z,3.95
2018-12-30T14:00:55.130Z,3.93
2018-12-30T14:03:26.426Z,3.94
2018-12-30T14:05:57.778Z,3.95
2018-12-30T14:08:31.298Z,3.93
2018-12-30T14:11:02.419Z,4.05
2018-12-30T14:13:33.460Z,3.99
2018-12-30T14:16:05.951Z,4.00
2018-12-30T14:18:37.191Z,4.06
2018-12-30T14:21:08.214Z,4.05
2018-12-30T14:23:39.386Z,4.12
2018-12-30T14:26:10.593Z,4.16
2018-12-30T14:28:41.698Z,4.09
2018-12-30T14:31:12.822Z,4.02
2018-12-30T14:33:44.165Z,3.97
2018-12-30T14:36:15.389Z,3.99
2018-12-30T14:38:46.547Z,3.99
2018-12-30T14:41:17.702Z,3.96
2018-12-30T14:43:50.596Z,4.01
2018-12-30T14:46:23.137Z,3.88
2018-12-30T14:48:54.209Z,3.87
2018-12-30T14:51:25.553Z,3.80
2018-12-30T14:53:56.907Z,3.79
2018-12-30T14:56:28.499Z,3.75
2018-12-30T14:59:00.686Z,3.64
2018-12-30T15:01:31.938Z,3.72
2018-12-30T15:04:03.028Z,3.71
2018-12-30T15:06:34.612Z,3.70
2018-12-30T15:09:08.451Z,3.58
2018-12-30T15:11:39.543Z,3.60
2018-12-30T15:14:10.577Z,3.60
2018-12-30T15:16:41.699Z,3.53
2018-12-30T15:19:12.911Z,3.42
2018-12-30T15:21:44.332Z,3.45
2018-12-30T15:24:15.332Z,3.43
2018-12-30T15:26:47.417Z,3.37
2018-12-30T15:29:18.475Z,3.39
2018-12-30T15:31:49.588Z,3.31
2018-12-30T15:34:20.823Z,3.25
2018-12-30T15:36:53.133Z,3.24
2018-12-30T15:39:24.225Z,3.13
2018-12-30T15:41:55.899Z,3.06
2018-12-30T15:44:26.897Z,3.06
2018-12-30T15:46:58.036Z,3.06
2018-12-30T15:49:30.826Z,3.07
2018-12-30T15:52:01.872Z,2.99
2018-12-30T15:54:32.965Z,2.88
2018-12-30T15:57:04.098Z,2.84
2018-12-30T15:59:35.184Z,2.84
2018-12-30T16:02:06.337Z,2.73
2018-12-30T16:04:37.443Z,2.62
2018-12-30T16:07:08.665Z,2.61
2018-12-30T16:09:39.895Z,2.61
2018-12-30T16:12:11.200Z,2.53
2018-12-30T16:14:42.286Z,2.43
2018-12-30T16:17:13.553Z,2.38
2018-12-30T16:19:44.869Z,2.38
2018-12-30T16:22:16.494Z,2.29
2018-12-30T16:24:47.599Z,2.25
2018-12-30T16:27:18.711Z,2.20
2018-12-30T16:29:49.875Z,2.21
2018-12-30T16:32:21.151Z,2.19
2018-12-30T16:34:52.406Z,2.18
2018-12-30T16:37:23.558Z,2.18
2018-12-30T16:39:54.762Z,2.17
2018-12-30T16:42:26.029Z,2.13
2018-12-30T16:44:57.145Z,2.14
2018-12-30T16:47:28.393Z,2.14
2018-12-30T16:49:59.570Z,2.09
2018-12-30T16:52:30.722Z,2.11
2018-12-30T16:55:02.301Z,2.12
2018-12-30T16:57:33.701Z,2.10
2018-12-30T17:00:07.270Z,2.07
2018-12-30T17:02:38.351Z,2.07
2018-12-30T17:05:10.906Z,2.04
2018-12-30T17:07:42.208Z,2.06
2018-12-30T17:10:13.467Z,2.05
2018-12-30T17:12:46.567Z,2.07
2018-12-30T17:15:17.664Z,2.09
2018-12-30T17:17:48.782Z,2.08
2018-12-30T17:20:19.930Z,2.06
2018-12-30T17:22:51.664Z,2.07
2018-12-30T17:25:22.808Z,2.10
2018-12-30T17:27:54.083Z,2.09
2018-12-30T17:30:25.258Z,2.09
2018-12-30T17:32:56.516Z,2.09
2018-12-30T17:35:28.982Z,2.08
2018-12-30T17:38:00.203Z,2.09
2018-12-30T17:40:38.216Z,2.07
2018-12-30T17:43:04.983Z,2.08
2018-12-30T17:45:36.454Z,2.07
2018-12-30T17:48:07.733Z,2.06
2018-12-30T17:50:39.166Z,2.08
2018-12-30T17:53:10.247Z,2.04
2018-12-30T17:55:41.591Z,2.03
2018-12-30T17:58:12.787Z,2.05
2018-12-30T18:00:44.866Z,2.06
2018-12-30T18:03:17.751Z,2.05
2018-12-30T18:05:48.770Z,2.06
2018-12-30T18:08:19.987Z,2.06
2018-12-30T18:10:51.241Z,2.04
2018-12-30T18:13:22.476Z,2.00
2018-12-30T18:15:53.655Z,2.03
2018-12-30T18:18:25.165Z,1.92
2018-12-30T18:20:56.750Z,1.93
2018-12-30T18:23:27.792Z,1.91
2018-12-30T18:25:58.981Z,1.91
2018-12-30T18:28:30.062Z,1.85
2018-12-30T18:31:01.260Z,1.80
2018-12-30T18:33:32.705Z,1.76
2018-12-30T18:36:03.865Z,1.71
2018-12-30T18:38:35.149Z,1.62
2018-12-30T18:41:06.395Z,1.56
2018-12-30T18:43:37.630Z,1.49
2018-12-30T18:46:09.032Z,1.42
2018-12-30T18:48:40.855Z,1.35
2018-12-30T18:51:12.379Z,1.40
2018-12-30T18:53:43.649Z,1.32
2018-12-30T18:56:14.705Z,1.31
2018-12-30T18:58:45.841Z,1.28
2018-12-30T19:01:18.730Z,1.17
2018-12-30T19:03:50.554Z,1.08
2018-12-30T19:06:22.207Z,1.06
2018-12-30T19:08:53.448Z,1.02
2018-12-30T19:11:24.674Z,1.04
2018-12-30T19:13:56.193Z,1.05
2018-12-30T19:16:27.217Z,1.06
2018-12-30T19:18:59.967Z,1.11
2018-12-30T19:21:31.185Z,1.18
2018-12-30T19:24:02.457Z,1.19
2018-12-30T19:26:33.758Z,1.23
2018-12-30T19:29:05.985Z,1.23
2018-12-30T19:31:37.044Z,1.27
2018-12-30T19:34:08.069Z,1.30
2018-12-30T19:36:39.917Z,1.32
2018-12-30T19:39:11.185Z,1.25
2018-12-30T19:41:43.125Z,1.20
2018-12-30T19:44:14.282Z,1.13
2018-12-30T19:46:46.120Z,1.10
2018-12-30T19:49:17.373Z,0.98
2018-12-30T19:51:48.561Z,0.85
2018-12-30T19:54:20.004Z,0.76
2018-12-30T19:56:51.137Z,0.67
2018-12-30T19:59:23.192Z,0.60
2018-12-30T20:01:54.340Z,0.55
2018-12-30T20:04:25.664Z,0.54
2018-12-30T20:06:56.832Z,0.48
2018-12-30T20:09:28.140Z,0.49
2018-12-30T20:11:59.233Z,0.45
2018-12-30T20:14:31.750Z,0.43
2018-12-30T20:17:02.760Z,0.46
2018-12-30T20:19:33.899Z,0.41
2018-12-30T20:22:06.271Z,0.37
2018-12-30T20:24:37.622Z,0.40
2018-12-30T20:27:08.661Z,0.34
2018-12-30T20:29:39.908Z,0.36
2018-12-30T20:32:10.881Z,0.37
2018-12-30T20:34:42.133Z,0.40
2018-12-30T20:37:15.099Z,0.45
2018-12-30T20:39:46.418Z,0.44
2018-12-30T20:42:17.604Z,0.48
2018-12-30T20:44:48.984Z,0.48
2018-12-30T20:47:20.077Z,0.52
2018-12-30T20:49:51.191Z,0.56
2018-12-30T20:52:22.497Z,0.60
2018-12-30T20:54:53.643Z,0.65
2018-12-30T20:57:24.737Z,0.68
2018-12-30T20:59:55.959Z,0.71
2018-12-30T21:02:27.010Z,0.77
2018-12-30T21:04:58.792Z,0.81
2018-12-30T21:07:29.887Z,0.86
2018-12-30T21:10:01.187Z,0.90
2018-12-30T21:12:32.689Z,0.93
2018-12-30T21:15:03.905Z,0.98
2018-12-30T21:17:35.541Z,1.02
2018-12-30T21:20:07.164Z,1.06
2018-12-30T21:22:40.009Z,1.12
2018-12-30T21:25:11.202Z,1.17
2018-12-30T21:27:42.620Z,1.20
2018-12-30T21:30:13.642Z,1.23
2018-12-30T21:32:44.933Z,1.27
2018-12-30T21:35:16.345Z,1.30
2018-12-30T21:37:47.595Z,1.38
2018-12-30T21:40:18.943Z,1.38
2018-12-30T21:42:50.362Z,1.42
2018-12-30T21:45:21.890Z,1.46
2018-12-30T21:47:53.358Z,1.47
2018-12-30T21:50:24.911Z,1.50
2018-12-30T21:52:57.233Z,1.55
2018-12-30T21:55:29.135Z,1.58
2018-12-30T21:58:00.618Z,1.60
2018-12-30T22:00:31.625Z,1.64
2018-12-30T22:03:03.930Z,1.68
2018-12-30T22:05:36.860Z,1.73
2018-12-30T22:08:08.970Z,1.73
2018-12-30T22:10:40.378Z,1.72
2018-12-30T22:13:11.343Z,1.75
2018-12-30T22:15:42.451Z,1.76
2018-12-30T22:18:13.672Z,1.81
2018-12-30T22:20:44.996Z,1.83
2018-12-30T22:23:16.344Z,1.83
2018-12-30T22:25:47.496Z,1.82
2018-12-30T22:28:18.511Z,1.83
2018-12-30T22:30:49.667Z,1.85
2018-12-30T22:33:20.984Z,1.87
2018-12-30T22:35:52.041Z,1.89
2018-12-30T22:38:23.273Z,1.93
2018-12-30T22:40:54.726Z,1.97
2018-12-30T22:43:26.021Z,1.99
2018-12-30T22:45:57.362Z,2.04
2018-12-30T22:48:28.464Z,2.08
2018-12-30T22:50:59.639Z,2.10
2018-12-30T22:53:30.735Z,2.15
2018-12-30T22:56:01.835Z,2.16
2018-12-30T22:58:33.032Z,2.14
2018-12-30T23:01:11.815Z,2.12
2018-12-30T23:03:43.041Z,2.12
2018-12-30T23:06:14.174Z,2.17
2018-12-30T23:08:45.560Z,2.13
2018-12-30T23:11:16.720Z,2.17
2018-12-30T23:13:47.849Z,2.17
2018-12-30T23:16:19.209Z,2.15
2018-12-30T23:18:50.223Z,2.19
2018-12-30T23:21:21.513Z,2.20
2018-12-30T23:23:53.872Z,2.20
2018-12-30T23:26:25.122Z,2.27
2018-12-30T23:28:56.370Z,2.24
2018-12-30T23:31:27.883Z,2.28
2018-12-30T23:34:00.537Z,2.28
2018-12-30T23:36:31.783Z,2.32
2018-12-30T23:39:03.009Z,2.35
2018-12-30T23:41:35.215Z,2.35
2018-12-30T23:44:09.189Z,2.34
2018-12-30T23:46:40.146Z,2.35
2018-12-30T23:49:11.350Z,2.33
2018-12-30T23:51:42.596Z,2.38
2018-12-30T23:54:13.769Z,2.39
2018-12-30T23:56:45.072Z,2.36
2018-12-30T23:59:16.250Z,2.40
